Time;durP1;ratioP1;P1;durP2;ratioP2;P2;SDS_P1;SDS_P2;PMS_P1;PMS_P2;Temp;Humidity;BMP_temperature;BMP_pressure;BME280_temperature;BME280_humidity;BME280_pressure;Samples;Min_cycle;Max_cycle;Signal;HPM_P1;HPM_P2
2022/05/21 00:01:47;;;;;;;;;;;;;;;;;;4345760;33;20405;-70
2022/05/21 00:04:12;;;;;;;18.67;9.40;;;;;;;;;;4345647;33;19990;-70
2022/05/21 00:06:38;;;;;;;18.60;8.88;;;;;;;;;;4347162;33;20032;-70
2022/05/21 00:09:04;;;;;;;19.95;9.27;;;;;;;;;;4360600;32;20031;-70
2022/05/21 00:11:29;;;;;;;24.15;8.75;;;;;;;;;;4354616;32;20024;-70
2022/05/21 00:13:55;;;;;;;25.52;8.75;;;;;;;;;;4354594;32;20393;-70
2022/05/21 00:16:20;;;;;;;22.92;7.10;;;;;;;;;;4363590;32;20158;-70
2022/05/21 00:18:46;;;;;;;28.20;7.03;;;;;;;;;;4364646;32;20080;-70
2022/05/21 00:21:12;;;;;;;22.08;7.43;;;;;;;;;;4362826;32;20031;-70
2022/05/21 00:23:37;;;;;;;23.20;8.63;;;;;;;;;;4356547;32;20032;-70
2022/05/21 00:26:07;;;;;;;18.00;7.00;;;;;;;;;;4349143;33;20058;-71
2022/05/21 00:28:33;;;;;;;24.60;6.95;;;;;;;;;;4349514;32;20039;-70
2022/05/21 00:30:59;;;;;;;22.80;7.53;;;;;;;;;;4347526;32;20028;-70
2022/05/21 00:33:25;;;;;;;17.10;6.93;;;;;;;;;;4349632;32;20066;-70
2022/05/21 00:35:50;;;;;;;22.30;6.95;;;;;;;;;;4347467;33;20419;-70
2022/05/21 00:38:16;;;;;;;29.20;6.25;;;;;;;;;;4347175;33;20127;-70
2022/05/21 00:40:41;;;;;;;20.85;6.50;;;;;;;;;;4347259;33;20036;-71
2022/05/21 00:43:06;;;;;;;21.80;6.07;;;;;;;;;;4360078;33;20086;-70
2022/05/21 00:45:31;;;;;;;19.23;5.35;;;;;;;;;;4350653;32;20097;-70
2022/05/21 00:47:57;;;;;;;19.13;5.53;;;;;;;;;;4349250;32;20418;-71
2022/05/21 00:50:24;;;;;;;21.42;7.53;;;;;;;;;;4347925;32;20125;-70
2022/05/21 00:52:50;;;;;;;19.02;8.60;;;;;;;;;;4347605;32;20058;-70
2022/05/21 00:55:22;;;;;;;18.40;8.50;;;;;;;;;;4347161;32;20241;-68
2022/05/21 00:57:48;;;;;;;22.33;8.13;;;;;;;;;;4352050;32;20093;-70
2022/05/21 01:00:19;;;;;;;19.83;8.38;;;;;;;;;;4362224;32;20036;-70
2022/05/21 01:02:47;;;;;;;20.10;8.23;;;;;;;;;;4360652;33;20055;-70
2022/05/21 01:05:14;;;;;;;25.27;8.02;;;;;;;;;;4362895;32;20054;-70
2022/05/21 01:07:41;;;;;;;15.70;6.62;;;;;;;;;;4363736;32;20417;-70
2022/05/21 01:10:08;;;;;;;21.37;7.32;;;;;;;;;;4360990;32;20072;-70
2022/05/21 01:12:36;;;;;;;23.95;5.90;;;;;;;;;;4358373;32;20468;-70
2022/05/21 01:15:03;;;;;;;25.58;6.37;;;;;;;;;;4348560;32;20123;-69
2022/05/21 01:17:28;;;;;;;29.23;6.03;;;;;;;;;;4348111;32;20031;-70
2022/05/21 01:20:04;;;;;;;21.92;5.82;;;;;;;;;;4347874;32;20436;-69
2022/05/21 01:22:30;;;;;;;20.85;5.05;;;;;;;;;;4348875;33;20040;-70
2022/05/21 01:24:56;;;;;;;22.73;5.07;;;;;;;;;;4357594;32;20602;-70
2022/05/21 01:27:22;;;;;;;28.42;5.32;;;;;;;;;;4354771;32;20023;-70
2022/05/21 01:29:50;;;;;;;24.70;5.55;;;;;;;;;;4362034;32;20357;-70
2022/05/21 01:32:16;;;;;;;22.98;4.60;;;;;;;;;;4362231;32;20398;-70
2022/05/21 01:34:41;;;;;;;27.45;6.35;;;;;;;;;;4357629;32;20032;-70
2022/05/21 01:37:07;;;;;;;26.40;6.72;;;;;;;;;;4348891;32;20102;-70
2022/05/21 01:39:32;;;;;;;22.45;5.45;;;;;;;;;;4348297;32;20330;-69
2022/05/21 01:41:57;;;;;;;22.20;5.05;;;;;;;;;;4347074;33;20147;-69
2022/05/21 01:44:40;;;;;;;28.02;5.95;;;;;;;;;;4355082;32;20020;-70
2022/05/21 01:47:05;;;;;;;31.30;6.47;;;;;;;;;;4359616;32;20132;-70
2022/05/21 01:49:31;;;;;;;21.10;4.55;;;;;;;;;;4358516;32;20050;-70
2022/05/21 01:51:56;;;;;;;23.95;5.20;;;;;;;;;;4348680;32;20021;-69
2022/05/21 01:54:21;;;;;;;29.70;6.22;;;;;;;;;;4350319;32;20028;-69
2022/05/21 01:56:46;;;;;;;25.35;5.60;;;;;;;;;;4346813;32;20515;-71
2022/05/21 01:59:11;;;;;;;28.87;6.10;;;;;;;;;;4346466;32;20431;-69
2022/05/21 02:01:37;;;;;;;25.50;4.95;;;;;;;;;;4347736;32;20116;-70
2022/05/21 02:04:02;;;;;;;17.90;5.05;;;;;;;;;;4346717;32;20406;-69
2022/05/21 02:06:28;;;;;;;22.77;5.03;;;;;;;;;;4348672;33;20075;-69
2022/05/21 02:08:53;;;;;;;22.13;5.03;;;;;;;;;;4361249;32;20077;-70
2022/05/21 02:11:18;;;;;;;;;;;;;;;;;;4351242;32;20027;-69
2022/05/21 02:13:43;;;;;;;21.58;5.12;;;;;;;;;;4347703;32;19943;-70
2022/05/21 02:16:08;;;;;;;28.05;6.18;;;;;;;;;;4358003;32;20187;-69
2022/05/21 02:18:34;;;;;;;23.60;4.90;;;;;;;;;;4362248;32;20023;-70
2022/05/21 02:21:00;;;;;;;21.00;5.87;;;;;;;;;;4361097;32;20032;-69
2022/05/21 02:23:25;;;;;;;32.30;6.47;;;;;;;;;;4362796;32;20050;-69
2022/05/21 02:25:50;;;;;;;27.48;4.82;;;;;;;;;;4361941;32;20040;-69
2022/05/21 02:28:16;;;;;;;29.27;5.45;;;;;;;;;;4361985;32;20071;-69
2022/05/21 02:30:41;;;;;;;27.58;5.80;;;;;;;;;;4342286;32;20050;-70
2022/05/21 02:33:06;;;;;;;31.08;6.40;;;;;;;;;;4331192;33;20040;-69
2022/05/21 02:35:32;;;;;;;29.73;5.03;;;;;;;;;;4332412;33;20051;-69
2022/05/21 02:40:41;;;;;;;23.05;5.07;;;;;;;;;;4361608;32;19969;-70
2022/05/21 02:43:06;;;;;;;27.55;5.55;;;;;;;;;;4361463;32;20067;-69
2022/05/21 02:45:31;;;;;;;32.37;5.43;;;;;;;;;;4361582;32;20027;-70
2022/05/21 02:47:57;;;;;;;25.52;5.03;;;;;;;;;;4361496;32;20198;-70
2022/05/21 02:50:23;;;;;;;28.42;5.25;;;;;;;;;;4360401;32;20024;-69
2022/05/21 02:52:49;;;;;;;25.88;4.80;;;;;;;;;;4360354;32;20398;-70
2022/05/21 02:55:15;;;;;;;28.27;4.40;;;;;;;;;;4362035;32;20089;-69
2022/05/21 02:57:40;;;;;;;24.98;4.60;;;;;;;;;;4361579;32;20353;-69
2022/05/21 03:00:11;;;;;;;27.87;5.00;;;;;;;;;;4362268;32;20055;-70
2022/05/21 03:02:36;;;;;;;26.12;5.85;;;;;;;;;;4360405;32;20059;-70
2022/05/21 03:05:03;;;;;;;19.48;5.60;;;;;;;;;;4360909;32;20030;-69
2022/05/21 03:07:28;;;;;;;18.73;4.35;;;;;;;;;;4350991;32;20199;-70
2022/05/21 03:12:37;;;;;;;23.75;5.07;;;;;;;;;;4346008;33;20460;-69
2022/05/21 03:15:03;;;;;;;26.42;5.70;;;;;;;;;;4345499;33;20028;-70
2022/05/21 03:17:28;;;;;;;;;;;;;;;;;;4345898;33;20454;-70
2022/05/21 03:19:53;;;;;;;20.48;5.40;;;;;;;;;;4358786;32;19961;-69
2022/05/21 03:22:18;;;;;;;26.92;4.28;;;;;;;;;;4360089;32;20027;-69
2022/05/21 03:24:43;;;;;;;;;;;;;;;;;;4361933;32;20053;-70
2022/05/21 03:27:09;;;;;;;24.50;5.90;;;;;;;;;;4356999;32;20289;-69
2022/05/21 03:29:34;;;;;;;31.15;5.22;;;;;;;;;;4345282;33;20062;-69
2022/05/21 03:31:59;;;;;;;22.98;4.30;;;;;;;;;;4346787;33;20389;-69
2022/05/21 03:34:24;;;;;;;21.12;3.87;;;;;;;;;;4345195;33;20028;-69
2022/05/21 03:36:49;;;;;;;20.25;5.28;;;;;;;;;;4351622;33;20416;-69
2022/05/21 03:39:15;;;;;;;25.60;4.20;;;;;;;;;;4353278;32;20166;-69
2022/05/21 03:41:40;;;;;;;21.08;4.45;;;;;;;;;;4348458;32;20054;-70
2022/05/21 03:44:05;;;;;;;18.98;4.90;;;;;;;;;;4348457;33;20059;-70
2022/05/21 03:46:30;;;;;;;;;;;;;;;;;;4349214;32;20186;-70
2022/05/21 03:48:55;;;;;;;23.02;4.87;;;;;;;;;;4364212;32;20020;-70
2022/05/21 03:51:20;;;;;;;19.40;4.37;;;;;;;;;;4363091;32;20146;-70
2022/05/21 03:53:45;;;;;;;;;;;;;;;;;;4363765;32;20175;-70
2022/05/21 03:56:11;;;;;;;27.02;5.15;;;;;;;;;;4373879;32;19946;-69
2022/05/21 03:58:36;;;;;;;22.58;4.68;;;;;;;;;;4361527;32;20058;-69
2022/05/21 04:01:01;;;;;;;;;;;;;;;;;;4364072;32;20023;-69
2022/05/21 04:03:26;;;;;;;21.27;4.18;;;;;;;;;;4358980;32;20408;-70
2022/05/21 04:05:55;;;;;;;15.68;3.87;;;;;;;;;;4351414;32;20087;-69
2022/05/21 04:08:20;;;;;;;18.67;4.37;;;;;;;;;;4362504;32;20447;-70
2022/05/21 04:10:46;;;;;;;20.00;4.37;;;;;;;;;;4364865;32;20132;-69
2022/05/21 04:13:11;;;;;;;;;;;;;;;;;;4358347;32;20155;-69
2022/05/21 04:15:36;;;;;;;22.05;4.20;;;;;;;;;;4334989;33;20030;-69
2022/05/21 04:18:02;;;;;;;21.42;4.30;;;;;;;;;;4334949;33;20398;-70
2022/05/21 04:20:27;;;;;;;;;;;;;;;;;;4357164;32;20153;-69
2022/05/21 04:22:53;;;;;;;14.93;3.90;;;;;;;;;;4333481;33;19939;-70
2022/05/21 04:25:18;;;;;;;20.85;4.32;;;;;;;;;;4333592;33;20037;-70
2022/05/21 04:27:43;;;;;;;;;;;;;;;;;;4355114;33;20077;-70
2022/05/21 04:30:14;;;;;;;16.87;3.95;;;;;;;;;;4373251;32;20289;-69
2022/05/21 04:32:39;;;;;;;23.15;5.10;;;;;;;;;;4364369;32;20057;-70
2022/05/21 04:35:05;;;;;;;22.20;4.35;;;;;;;;;;4362493;32;20031;-68
2022/05/21 04:37:30;;;;;;;22.87;4.47;;;;;;;;;;4363881;32;20081;-70
2022/05/21 04:39:55;;;;;;;17.33;3.53;;;;;;;;;;4363528;32;20078;-71
2022/05/21 04:42:20;;;;;;;18.33;4.00;;;;;;;;;;4362880;32;20575;-72
2022/05/21 04:44:45;;;;;;;26.33;5.28;;;;;;;;;;4364075;32;20509;-70
2022/05/21 04:47:11;;;;;;;24.58;4.60;;;;;;;;;;4361939;32;20100;-68
2022/05/21 04:49:36;;;;;;;15.65;3.53;;;;;;;;;;4363179;32;20074;-70
2022/05/21 04:52:02;;;;;;;21.42;4.37;;;;;;;;;;4361653;32;20069;-69
2022/05/21 04:54:27;;;;;;;23.98;4.43;;;;;;;;;;4362600;32;20031;-69
2022/05/21 04:56:53;;;;;;;19.08;3.97;;;;;;;;;;4362577;32;20046;-69
2022/05/21 04:59:18;;;;;;;24.05;4.90;;;;;;;;;;4364544;32;20452;-72
2022/05/21 05:01:43;;;;;;;21.45;4.45;;;;;;;;;;4365853;32;20028;-69
2022/05/21 05:04:08;;;;;;;28.27;5.07;;;;;;;;;;4363522;32;20024;-69
2022/05/21 05:06:35;;;;;;;20.58;4.37;;;;;;;;;;4354619;32;20081;-69
2022/05/21 05:09:00;;;;;;;21.08;3.60;;;;;;;;;;4360415;32;20110;-69
2022/05/21 05:11:25;;;;;;;26.87;5.72;;;;;;;;;;4363481;32;20032;-71
2022/05/21 05:13:50;;;;;;;21.45;4.40;;;;;;;;;;4362664;32;20067;-70
2022/05/21 05:16:15;;;;;;;;;;;;;;;;;;4361874;32;20461;-69
2022/05/21 05:18:41;;;;;;;22.70;4.60;;;;;;;;;;4362575;32;19939;-69
2022/05/21 05:21:06;;;;;;;26.35;4.30;;;;;;;;;;4358688;32;20154;-69
2022/05/21 05:23:31;;;;;;;28.00;6.30;;;;;;;;;;4347184;32;20468;-69
2022/05/21 05:25:59;;;;;;;14.95;3.37;;;;;;;;;;4348512;32;20024;-69
2022/05/21 05:28:24;;;;;;;19.35;4.32;;;;;;;;;;4346709;32;20058;-69
2022/05/21 05:30:49;;;;;;;;;;;;;;;;;;4347684;32;20019;-70
2022/05/21 05:33:15;;;;;;;25.80;4.93;;;;;;;;;;4346797;33;19939;-70
2022/05/21 05:35:41;;;;;;;23.42;4.75;;;;;;;;;;4349002;32;20068;-69
2022/05/21 05:38:07;;;;;;;18.87;4.45;;;;;;;;;;4361640;32;20090;-69
2022/05/21 05:40:33;;;;;;;;;;;;;;;;;;4373037;32;20027;-69
2022/05/21 05:42:59;;;;;;;15.30;4.32;;;;;;;;;;4374261;32;20348;-69
2022/05/21 05:45:24;;;;;;;22.55;4.80;;;;;;;;;;4361297;32;20054;-69
2022/05/21 05:47:49;;;;;;;21.17;4.10;;;;;;;;;;4361048;32;20396;-70
2022/05/21 05:50:14;;;;;;;22.50;6.12;;;;;;;;;;4361708;32;20211;-70
2022/05/21 05:52:39;;;;;;;25.67;5.12;;;;;;;;;;4346998;32;20328;-70
2022/05/21 05:55:05;;;;;;;18.48;3.85;;;;;;;;;;4346220;32;20039;-70
2022/05/21 05:57:30;;;;;;;21.70;4.37;;;;;;;;;;4347026;32;20108;-69
2022/05/21 05:59:56;;;;;;;21.08;3.85;;;;;;;;;;4331928;33;20060;-69
2022/05/21 06:05:08;;;;;;;16.05;3.58;;;;;;;;;;4346201;33;20105;-68
2022/05/21 06:07:34;;;;;;;23.02;6.45;;;;;;;;;;4343816;33;20109;-70
2022/05/21 06:10:01;;;;;;;21.85;3.83;;;;;;;;;;4346852;33;20040;-69
2022/05/21 06:12:26;;;;;;;21.77;3.80;;;;;;;;;;4347009;32;20496;-70
2022/05/21 06:14:53;;;;;;;29.55;4.53;;;;;;;;;;4346838;32;20418;-70
2022/05/21 06:17:18;;;;;;;17.65;4.25;;;;;;;;;;4346125;33;20047;-69
2022/05/21 06:19:43;;;;;;;21.33;3.75;;;;;;;;;;4348301;32;20019;-70
2022/05/21 06:22:09;;;;;;;17.95;3.70;;;;;;;;;;4359759;32;20078;-70
2022/05/21 06:24:35;;;;;;;16.52;4.93;;;;;;;;;;4344474;33;20538;-69
2022/05/21 06:27:00;;;;;;;23.35;4.65;;;;;;;;;;4346028;32;20053;-69
2022/05/21 06:29:25;;;;;;;16.85;3.65;;;;;;;;;;4346874;33;20060;-71
2022/05/21 06:31:50;;;;;;;24.48;4.07;;;;;;;;;;4345796;33;20090;-70
2022/05/21 06:34:16;;;;;;;19.35;4.60;;;;;;;;;;4354907;32;20126;-71
2022/05/21 06:36:41;;;;;;;16.50;3.70;;;;;;;;;;4352687;32;20069;-70
2022/05/21 06:39:06;;;;;;;19.57;3.57;;;;;;;;;;4345903;33;20437;-70
2022/05/21 06:41:31;;;;;;;17.90;4.50;;;;;;;;;;4346046;32;20129;-70
2022/05/21 06:43:57;;;;;;;23.02;4.10;;;;;;;;;;4347328;32;20538;-70
2022/05/21 06:46:22;;;;;;;14.30;3.47;;;;;;;;;;4345056;33;20035;-70
2022/05/21 06:48:47;;;;;;;27.90;4.75;;;;;;;;;;4344743;33;20414;-69
2022/05/21 06:51:13;;;;;;;16.10;3.87;;;;;;;;;;4345616;33;20020;-70
2022/05/21 06:53:40;;;;;;;25.85;4.00;;;;;;;;;;4347114;32;20342;-69
2022/05/21 06:56:06;;;;;;;23.65;4.18;;;;;;;;;;4347438;32;20127;-69
2022/05/21 06:58:31;;;;;;;17.37;3.35;;;;;;;;;;4359764;32;20027;-70
2022/05/21 07:00:56;;;;;;;18.52;3.97;;;;;;;;;;4344089;33;20062;-69
2022/05/21 07:03:21;;;;;;;18.30;3.72;;;;;;;;;;4350552;32;20099;-71
2022/05/21 07:08:31;;;;;;;20.75;3.72;;;;;;;;;;4352357;32;20149;-70
2022/05/21 07:10:56;;;;;;;17.50;4.32;;;;;;;;;;4353440;32;20062;-70
2022/05/21 07:13:22;;;;;;;22.62;4.25;;;;;;;;;;4359982;32;20106;-68
2022/05/21 07:15:49;;;;;;;20.10;3.70;;;;;;;;;;4360688;32;20460;-71
2022/05/21 07:18:15;;;;;;;19.15;4.28;;;;;;;;;;4361175;32;20035;-69
2022/05/21 07:20:41;;;;;;;16.08;3.97;;;;;;;;;;4361767;32;20027;-70
2022/05/21 07:23:06;;;;;;;22.05;4.22;;;;;;;;;;4356871;32;20091;-70
2022/05/21 07:25:31;;;;;;;15.45;3.65;;;;;;;;;;4344189;32;20071;-70
2022/05/21 07:27:57;;;;;;;20.23;5.18;;;;;;;;;;4346212;33;20178;-70
2022/05/21 07:30:22;;;;;;;16.87;3.60;;;;;;;;;;4346470;33;20083;-69
2022/05/21 07:32:50;;;;;;;19.98;4.57;;;;;;;;;;4356349;33;20023;-68
2022/05/21 07:35:16;;;;;;;23.70;4.60;;;;;;;;;;4348422;33;20023;-71
2022/05/21 07:37:41;;;;;;;17.30;4.30;;;;;;;;;;4346344;33;20074;-69
2022/05/21 07:40:08;;;;;;;17.95;3.35;;;;;;;;;;4341290;33;20494;-71
2022/05/21 07:42:33;;;;;;;25.42;4.37;;;;;;;;;;4332080;33;20350;-70
2022/05/21 07:44:58;;;;;;;15.38;4.05;;;;;;;;;;4332149;33;20147;-71
2022/05/21 07:47:24;;;;;;;24.42;4.00;;;;;;;;;;4332053;33;20128;-69
2022/05/21 07:49:56;;;;;;;21.00;4.82;;;;;;;;;;4331658;33;20464;-69
2022/05/21 07:52:21;;;;;;;19.83;3.70;;;;;;;;;;4341214;33;20109;-72
2022/05/21 07:54:46;;;;;;;16.52;3.40;;;;;;;;;;4345695;33;20381;-69
2022/05/21 07:57:11;;;;;;;18.83;3.97;;;;;;;;;;4346655;33;20324;-69
2022/05/21 07:59:36;;;;;;;21.52;6.03;;;;;;;;;;4346650;33;20031;-70
2022/05/21 08:02:01;;;;;;;19.05;4.78;;;;;;;;;;4346284;33;20572;-70
2022/05/21 08:04:27;;;;;;;19.37;4.03;;;;;;;;;;4357362;33;20136;-68
2022/05/21 08:06:52;;;;;;;24.98;3.95;;;;;;;;;;4357137;33;20110;-70
2022/05/21 08:09:17;;;;;;;21.08;4.50;;;;;;;;;;4346745;32;20024;-70
2022/05/21 08:11:42;;;;;;;18.98;4.28;;;;;;;;;;4358321;32;20039;-69
2022/05/21 08:14:08;;;;;;;22.37;5.80;;;;;;;;;;4346399;33;20032;-70
2022/05/21 08:16:33;;;;;;;16.48;3.83;;;;;;;;;;4346012;33;20055;-69
2022/05/21 08:18:59;;;;;;;19.73;3.83;;;;;;;;;;4347460;33;20443;-69
2022/05/21 08:21:24;;;;;;;19.17;3.90;;;;;;;;;;4346773;33;20050;-70
2022/05/21 08:29:17;;;;;;;14.23;3.83;;;;;;;;;;4348607;33;20078;-70
2022/05/21 08:31:42;;;;;;;17.25;3.85;;;;;;;;;;4348893;32;20031;-70
2022/05/21 08:34:08;;;;;;;18.00;5.00;;;;;;;;;;4359252;32;20040;-70
2022/05/21 08:36:33;;;;;;;12.00;3.50;;;;;;;;;;4359769;32;20111;-69
2022/05/21 08:38:58;;;;;;;25.33;5.05;;;;;;;;;;4363478;32;20376;-69
2022/05/21 08:41:25;;;;;;;14.13;4.12;;;;;;;;;;4362462;32;20046;-70
2022/05/21 08:44:12;;;;;;;20.20;5.20;;;;;;;;;;4362109;32;20135;-69
2022/05/21 08:46:42;;;;;;;15.60;3.67;;;;;;;;;;4362478;32;20078;-69
2022/05/21 08:49:11;;;;;;;16.48;3.97;;;;;;;;;;4350866;32;20150;-72
2022/05/21 08:51:42;;;;;;;20.62;4.30;;;;;;;;;;4348760;32;20473;-70
2022/05/21 08:54:08;;;;;;;15.73;4.82;;;;;;;;;;4348840;32;20095;-69
2022/05/21 08:56:35;;;;;;;19.37;5.62;;;;;;;;;;4358366;32;20429;-69
2022/05/21 08:59:05;;;;;;;17.20;3.87;;;;;;;;;;4354485;32;20035;-69
2022/05/21 09:01:33;;;;;;;15.60;4.15;;;;;;;;;;4349300;32;20054;-70
2022/05/21 09:03:58;;;;;;;16.05;4.95;;;;;;;;;;4347984;32;20117;-70
2022/05/21 09:06:30;;;;;;;18.23;4.03;;;;;;;;;;4370114;32;20032;-70
2022/05/21 09:09:05;;;;;;;15.52;3.92;;;;;;;;;;4362425;32;20061;-70
2022/05/21 09:11:43;;;;;;;17.20;3.97;;;;;;;;;;4361742;32;20081;-70
2022/05/21 09:14:31;;;;;;;20.50;3.78;;;;;;;;;;4348455;33;20418;-70
2022/05/21 09:16:57;;;;;;;16.55;4.75;;;;;;;;;;4347695;33;20435;-70
2022/05/21 09:19:33;;;;;;;22.05;4.35;;;;;;;;;;4348371;32;20031;-69
2022/05/21 09:22:00;;;;;;;16.30;3.87;;;;;;;;;;4348707;32;20027;-70
2022/05/21 09:24:42;;;;;;;19.90;4.87;;;;;;;;;;4346633;33;20070;-69
2022/05/21 09:27:23;;;;;;;12.45;3.75;;;;;;;;;;4346549;32;20036;-70
2022/05/21 09:29:50;;;;;;;12.30;3.28;;;;;;;;;;4348535;32;20028;-69
2022/05/21 09:32:17;;;;;;;17.17;4.62;;;;;;;;;;4346752;33;20027;-71
2022/05/21 09:34:43;;;;;;;21.65;4.28;;;;;;;;;;4346654;33;20096;-68
2022/05/21 09:37:14;;;;;;;14.55;4.50;;;;;;;;;;4360772;32;20487;-70
2022/05/21 09:39:40;;;;;;;14.68;3.75;;;;;;;;;;4361649;32;20035;-68
2022/05/21 09:42:13;;;;;;;11.30;3.22;;;;;;;;;;4362463;32;20038;-70
2022/05/21 09:47:27;;;;;;;16.80;3.80;;;;;;;;;;4361967;32;20078;-69
2022/05/21 09:50:06;;;;;;;18.85;4.05;;;;;;;;;;4360953;32;20024;-70
2022/05/21 09:52:32;;;;;;;23.58;4.05;;;;;;;;;;4361834;32;20124;-70
2022/05/21 09:54:58;;;;;;;15.82;3.10;;;;;;;;;;4362580;32;20019;-69
2022/05/21 09:57:26;;;;;;;11.95;3.15;;;;;;;;;;4361143;32;20031;-70
2022/05/21 10:00:03;;;;;;;18.98;4.53;;;;;;;;;;4348793;32;20390;-69
2022/05/21 10:02:28;;;;;;;;;;;;;;;;;;4356877;33;20069;-71
2022/05/21 10:04:54;;;;;;;14.23;3.72;;;;;;;;;;4347956;32;19939;-70
2022/05/21 10:10:58;;;;;;;13.68;2.97;;;;;;;;;;4347510;32;20032;-70
2022/05/21 10:12:52;;;;;;;18.53;4.47;;;;;;;;;;4347988;32;20062;-70
2022/05/21 10:15:19;;;;;;;14.45;3.72;;;;;;;;;;4345675;33;20221;-70
2022/05/21 10:18:04;;;;;;;20.25;4.43;;;;;;;;;;4345878;33;20027;-70
2022/05/21 10:20:35;;;;;;;14.93;3.83;;;;;;;;;;4347473;32;20087;-69
2022/05/21 10:23:11;;;;;;;14.40;3.37;;;;;;;;;;4357565;32;20058;-68
2022/05/21 10:25:36;;;;;;;14.00;3.12;;;;;;;;;;4347367;32;20081;-68
2022/05/21 10:28:06;;;;;;;11.40;3.70;;;;;;;;;;4346256;32;20028;-69
2022/05/21 10:30:52;;;;;;;17.45;5.37;;;;;;;;;;4347519;33;20090;-69
2022/05/21 10:33:24;;;;;;;19.12;3.95;;;;;;;;;;4346511;32;20079;-69
2022/05/21 10:35:55;;;;;;;13.38;4.05;;;;;;;;;;4355026;32;20031;-69
2022/05/21 10:38:21;;;;;;;25.45;3.90;;;;;;;;;;4361095;32;20073;-69
2022/05/21 10:40:58;;;;;;;12.05;3.67;;;;;;;;;;4359808;32;20047;-69
2022/05/21 10:43:37;;;;;;;18.20;3.72;;;;;;;;;;4360198;33;20047;-70
2022/05/21 10:46:26;;;;;;;12.43;3.37;;;;;;;;;;4361798;32;20054;-70
2022/05/21 10:48:55;;;;;;;12.35;3.80;;;;;;;;;;4361991;32;20023;-69
2022/05/21 10:51:26;;;;;;;19.45;4.90;;;;;;;;;;4360370;32;20020;-69
2022/05/21 10:54:08;;;;;;;13.57;4.28;;;;;;;;;;4372902;32;20086;-69
2022/05/21 10:56:43;;;;;;;16.02;4.00;;;;;;;;;;4360314;32;20046;-70
2022/05/21 10:59:18;;;;;;;18.60;4.70;;;;;;;;;;4362312;32;20118;-69
2022/05/21 11:01:54;;;;;;;19.75;5.35;;;;;;;;;;4359168;32;20027;-69
2022/05/21 11:04:28;;;;;;;17.20;5.57;;;;;;;;;;4360461;32;20015;-69
2022/05/21 11:06:56;;;;;;;11.48;3.92;;;;;;;;;;4359485;32;20035;-69
2022/05/21 11:09:24;;;;;;;21.30;6.10;;;;;;;;;;4358947;32;20308;-70
2022/05/21 11:11:49;;;;;;;16.75;4.62;;;;;;;;;;4360383;32;20031;-69
2022/05/21 11:14:18;;;;;;;13.73;4.55;;;;;;;;;;4360450;32;20081;-69
2022/05/21 11:16:53;;;;;;;11.30;3.97;;;;;;;;;;4370577;32;20030;-70
2022/05/21 11:19:28;;;;;;;12.75;3.75;;;;;;;;;;4361341;32;20053;-71
2022/05/21 11:22:04;;;;;;;14.23;4.03;;;;;;;;;;4358613;32;20049;-69
2022/05/21 11:24:30;;;;;;;11.27;3.87;;;;;;;;;;4354532;32;20036;-69
2022/05/21 11:26:58;;;;;;;13.27;3.60;;;;;;;;;;4356431;32;20315;-69
2022/05/21 11:29:46;;;;;;;17.33;4.15;;;;;;;;;;4347057;33;20051;-70
2022/05/21 11:38:34;;;;;;;10.80;3.67;;;;;;;;;;4361691;32;20426;-69
2022/05/21 11:43:51;;;;;;;11.48;2.87;;;;;;;;;;4360713;33;20045;-70
2022/05/21 11:46:17;;;;;;;10.82;3.05;;;;;;;;;;4359727;32;20460;-68
2022/05/21 11:48:42;;;;;;;14.55;4.25;;;;;;;;;;4359337;32;20057;-70
2022/05/21 11:51:17;;;;;;;13.20;3.40;;;;;;;;;;4361310;32;20066;-69
2022/05/21 11:53:42;;;;;;;10.98;3.62;;;;;;;;;;4360272;32;20027;-69
2022/05/21 11:56:10;;;;;;;11.23;3.22;;;;;;;;;;4358951;32;20381;-69
2022/05/21 11:58:54;;;;;;;16.35;3.65;;;;;;;;;;4359451;32;20448;-68
2022/05/21 12:01:40;;;;;;;14.05;4.47;;;;;;;;;;4361726;32;20023;-67
2022/05/21 12:04:05;;;;;;;;;;;;;;;;;;4360977;32;20113;-69
2022/05/21 12:06:37;;;;;;;12.43;3.00;;;;;;;;;;4357456;32;19942;-70
2022/05/21 12:09:22;;;;;;;14.77;3.37;;;;;;;;;;4360966;32;20206;-70
2022/05/21 12:11:47;;;;;;;10.68;3.28;;;;;;;;;;4360049;32;20106;-69
2022/05/21 12:14:16;;;;;;;14.87;3.87;;;;;;;;;;4359890;32;20044;-69
2022/05/21 12:16:42;;;;;;;12.13;3.22;;;;;;;;;;4347605;33;20027;-69
2022/05/21 12:19:08;;;;;;;12.15;2.62;;;;;;;;;;4347643;32;20078;-69
2022/05/21 12:21:35;;;;;;;9.77;2.40;;;;;;;;;;4347722;33;20024;-68
2022/05/21 12:24:07;;;;;;;12.27;3.10;;;;;;;;;;4348590;32;20102;-69
2022/05/21 12:26:37;;;;;;;11.70;2.75;;;;;;;;;;4333434;33;20107;-69
2022/05/21 12:29:14;;;;;;;9.32;2.17;;;;;;;;;;4335589;33;20050;-69
2022/05/21 12:31:42;;;;;;;12.73;3.03;;;;;;;;;;4348036;32;20062;-68
2022/05/21 12:34:19;;;;;;;9.93;2.97;;;;;;;;;;4348853;33;20335;-69
2022/05/21 12:36:44;;;;;;;11.02;3.03;;;;;;;;;;4346888;33;20386;-68
2022/05/21 12:39:11;;;;;;;13.90;3.40;;;;;;;;;;4348483;32;20086;-68
2022/05/21 12:41:38;;;;;;;12.40;2.70;;;;;;;;;;4347209;32;20024;-69
2022/05/21 12:44:04;;;;;;;11.48;3.50;;;;;;;;;;4359911;32;20035;-69
2022/05/21 12:46:32;;;;;;;7.35;2.05;;;;;;;;;;4348408;32;20118;-70
2022/05/21 12:48:58;;;;;;;11.85;2.92;;;;;;;;;;4347132;32;20405;-68
2022/05/21 12:51:26;;;;;;;10.40;2.95;;;;;;;;;;4358942;32;20315;-69
2022/05/21 12:53:51;;;;;;;8.05;2.95;;;;;;;;;;4352895;32;20031;-70
2022/05/21 12:56:26;;;;;;;10.25;2.80;;;;;;;;;;4349470;32;20469;-68
2022/05/21 12:59:08;;;;;;;9.38;2.70;;;;;;;;;;4359578;32;20051;-69
2022/05/21 13:01:36;;;;;;;9.75;2.92;;;;;;;;;;4363413;32;20392;-68
2022/05/21 13:04:01;;;;;;;9.15;3.05;;;;;;;;;;4361394;32;20377;-69
2022/05/21 13:06:28;;;;;;;13.45;2.95;;;;;;;;;;4374764;32;20130;-70
2022/05/21 13:08:53;;;;;;;14.25;3.58;;;;;;;;;;4361465;32;20019;-69
2022/05/21 13:11:20;;;;;;;9.80;2.90;;;;;;;;;;4362651;32;20040;-69
2022/05/21 13:13:56;;;;;;;11.80;3.03;;;;;;;;;;4360903;32;20167;-69
2022/05/21 13:16:23;;;;;;;11.23;2.60;;;;;;;;;;4363781;32;20053;-69
2022/05/21 13:19:06;;;;;;;8.35;2.65;;;;;;;;;;4347609;32;20077;-71
2022/05/21 13:21:54;;;;;;;18.37;2.87;;;;;;;;;;4346636;32;20126;-68
2022/05/21 13:24:42;;;;;;;10.93;3.05;;;;;;;;;;4344078;33;20036;-71
2022/05/21 13:27:12;;;;;;;7.37;2.80;;;;;;;;;;4345421;32;20072;-69
2022/05/21 13:29:37;;;;;;;8.88;2.55;;;;;;;;;;4346096;32;20071;-70
2022/05/21 13:32:23;;;;;;;7.40;2.42;;;;;;;;;;4346355;33;20090;-69
2022/05/21 13:34:48;;;;;;;8.63;2.70;;;;;;;;;;4344912;33;20024;-70
2022/05/21 13:37:13;;;;;;;9.07;2.58;;;;;;;;;;4348463;33;20050;-70
2022/05/21 13:39:39;;;;;;;7.37;2.40;;;;;;;;;;4352764;32;20042;-70
2022/05/21 13:42:15;;;;;;;7.97;2.20;;;;;;;;;;4361838;32;20058;-69
2022/05/21 13:44:42;;;;;;;9.45;2.45;;;;;;;;;;4362567;32;20295;-69
2022/05/21 13:47:15;;;;;;;9.43;2.80;;;;;;;;;;4357262;32;20082;-70
2022/05/21 13:49:42;;;;;;;10.18;2.45;;;;;;;;;;4346680;33;20085;-69
2022/05/21 13:52:09;;;;;;;11.70;2.92;;;;;;;;;;4359095;32;20086;-70
2022/05/21 13:54:34;;;;;;;12.52;3.17;;;;;;;;;;4352713;32;20032;-71
2022/05/21 13:57:10;;;;;;;7.40;2.45;;;;;;;;;;4331409;33;20331;-69
2022/05/21 13:59:46;;;;;;;9.98;2.87;;;;;;;;;;4332673;33;20044;-70
2022/05/21 14:02:23;;;;;;;8.85;2.45;;;;;;;;;;4333069;33;20028;-70
2022/05/21 14:04:48;;;;;;;8.15;2.08;;;;;;;;;;4342394;33;20062;-69
2022/05/21 14:07:23;;;;;;;10.65;2.70;;;;;;;;;;4332624;33;20028;-69
2022/05/21 14:09:51;;;;;;;12.07;3.20;;;;;;;;;;4351955;32;20366;-69
2022/05/21 14:12:28;;;;;;;14.20;2.95;;;;;;;;;;4340671;32;20124;-69
2022/05/21 14:14:54;;;;;;;10.82;2.55;;;;;;;;;;4347362;32;20040;-70
2022/05/21 14:17:19;;;;;;;7.30;2.75;;;;;;;;;;4345884;32;20402;-69
2022/05/21 14:20:03;;;;;;;12.27;3.08;;;;;;;;;;4357158;32;20327;-69
2022/05/21 14:22:30;;;;;;;9.90;3.40;;;;;;;;;;4347251;32;20137;-71
2022/05/21 14:25:13;;;;;;;12.43;3.28;;;;;;;;;;4351363;32;20058;-70
2022/05/21 14:27:53;;;;;;;10.15;3.65;;;;;;;;;;4346329;32;20035;-69
2022/05/21 14:30:28;;;;;;;9.75;2.97;;;;;;;;;;4346021;32;20027;-69
2022/05/21 14:32:53;;;;;;;9.30;3.25;;;;;;;;;;4346773;32;20336;-68
2022/05/21 14:35:21;;;;;;;9.30;2.30;;;;;;;;;;4347990;33;20405;-68
2022/05/21 14:37:47;;;;;;;7.28;2.58;;;;;;;;;;4347229;32;20209;-68
2022/05/21 14:40:13;;;;;;;11.60;3.37;;;;;;;;;;4347811;32;20103;-68
2022/05/21 14:42:38;;;;;;;15.27;2.87;;;;;;;;;;4346433;33;20090;-70
2022/05/21 14:45:11;;;;;;;13.38;3.35;;;;;;;;;;4346865;32;20023;-70
2022/05/21 14:47:51;;;;;;;8.35;3.00;;;;;;;;;;4344078;33;20036;-69
2022/05/21 14:53:02;;;;;;;9.63;2.83;;;;;;;;;;4346929;33;20043;-69
2022/05/21 14:55:27;;;;;;;13.85;3.62;;;;;;;;;;4358235;32;20074;-68
2022/05/21 14:57:52;;;;;;;7.95;2.83;;;;;;;;;;4362007;32;20057;-69
2022/05/21 15:00:19;;;;;;;14.53;2.77;;;;;;;;;;4360117;32;20393;-69
2022/05/21 15:02:44;;;;;;;11.48;4.15;;;;;;;;;;4349545;32;20124;-68
2022/05/21 15:05:10;;;;;;;11.82;2.95;;;;;;;;;;4346977;33;20122;-69
2022/05/21 15:07:38;;;;;;;7.70;2.37;;;;;;;;;;4346807;32;20053;-69
2022/05/21 15:10:04;;;;;;;8.82;2.30;;;;;;;;;;4346996;32;20031;-70
2022/05/21 15:12:29;;;;;;;10.25;2.28;;;;;;;;;;4346035;33;20065;-70
2022/05/21 15:14:54;;;;;;;11.90;2.87;;;;;;;;;;4346004;33;20456;-69